createdAt,value
2019-04-23T00:00:03.717Z,5.30
2019-04-23T00:02:35.995Z,5.40
2019-04-23T00:04:52.842Z,4.90
2019-04-23T00:07:49.300Z,5.22
2019-04-23T00:10:04.548Z,5.57
2019-04-23T00:12:50.885Z,5.28
2019-04-23T00:15:07.378Z,5.03
2019-04-23T00:20:09.440Z,4.95
2019-04-23T00:27:51.565Z,5.53
2019-04-23T00:30:26.598Z,5.50
2019-04-23T00:32:56.088Z,5.67
2019-04-23T00:35:25.773Z,5.33
2019-04-23T00:38:06.066Z,5.20
2019-04-23T00:40:37.549Z,5.45
2019-04-23T00:43:02.029Z,5.33
2019-04-23T00:45:39.790Z,5.40
2019-04-23T00:48:02.217Z,5.80
2019-04-23T00:50:45.601Z,5.83
2019-04-23T00:53:10.973Z,6.00
2019-04-23T00:55:42.572Z,6.17
2019-04-23T00:58:21.474Z,6.03
2019-04-23T01:00:48.935Z,6.12
2019-04-23T01:03:42.208Z,5.95
2019-04-23T01:05:50.359Z,6.17
2019-04-23T01:08:18.609Z,6.22
2019-04-23T01:11:06.220Z,5.67
2019-04-23T01:13:38.053Z,6.35
2019-04-23T01:16:06.055Z,6.20
2019-04-23T01:18:48.541Z,6.00
2019-04-23T01:20:54.257Z,6.10
2019-04-23T01:23:40.428Z,6.05
2019-04-23T01:26:31.116Z,6.30
2019-04-23T01:29:07.043Z,5.87
2019-04-23T01:31:39.869Z,5.60
2019-04-23T01:34:18.486Z,5.20
2019-04-23T01:36:35.522Z,5.33
2019-04-23T01:39:14.303Z,5.20
2019-04-23T01:41:48.057Z,5.30
2019-04-23T01:44:15.601Z,5.75
2019-04-23T01:46:49.186Z,4.90
2019-04-23T01:49:22.121Z,5.08
2019-04-23T01:51:54.872Z,5.35
2019-04-23T01:54:19.259Z,5.27
2019-04-23T01:56:47.232Z,4.92
2019-04-23T01:59:24.528Z,4.92
2019-04-23T02:06:59.422Z,5.20
2019-04-23T02:09:37.217Z,5.20
2019-04-23T02:12:05.918Z,5.80
2019-04-23T02:14:37.562Z,5.42
2019-04-23T02:17:10.531Z,5.83
2019-04-23T02:19:42.016Z,5.72
2019-04-23T02:22:17.971Z,5.85
2019-04-23T02:24:48.111Z,6.03
2019-04-23T02:27:24.914Z,5.92
2019-04-23T02:30:12.550Z,6.10
2019-04-23T02:35:12.276Z,6.17
2019-04-23T02:37:36.293Z,6.22
2019-04-23T02:42:53.588Z,6.15
2019-04-23T02:45:06.762Z,6.45
2019-04-23T02:55:09.012Z,5.83
2019-04-23T02:57:37.004Z,5.28
2019-04-23T03:00:19.302Z,5.30
2019-04-23T03:03:04.012Z,5.30
2019-04-23T03:05:11.146Z,5.10
2019-04-23T03:07:47.500Z,5.28
2019-04-23T03:10:15.703Z,4.83
2019-04-23T03:12:48.990Z,4.70
2019-04-23T03:15:29.768Z,4.90
2019-04-23T03:21:08.463Z,4.72
2019-04-23T03:23:27.322Z,4.87
2019-04-23T03:26:01.953Z,4.75
2019-04-23T03:28:33.375Z,4.97
2019-04-23T03:41:14.985Z,4.55
2019-04-23T03:48:45.393Z,4.97
2019-04-23T03:51:03.136Z,4.45
2019-04-23T03:53:52.264Z,4.40
2019-04-23T03:56:22.883Z,4.50
2019-04-23T03:58:44.886Z,4.45
2019-04-23T04:06:24.405Z,4.60
2019-04-23T04:08:58.531Z,5.03
2019-04-23T04:11:25.137Z,5.12
2019-04-23T04:14:01.183Z,5.28
2019-04-23T04:18:57.284Z,4.80
2019-04-23T04:21:39.811Z,4.90
2019-04-23T04:24:05.264Z,4.80
2019-04-23T04:26:36.892Z,4.50
2019-04-23T04:28:58.815Z,4.37
2019-04-23T04:31:48.559Z,4.17
2019-04-23T04:34:21.872Z,4.47
2019-04-23T04:39:03.283Z,4.70
2019-04-23T04:41:39.974Z,4.85
2019-04-23T04:49:15.169Z,4.80
2019-04-23T04:52:00.541Z,4.80
2019-04-23T04:56:47.283Z,4.87
2019-04-23T04:59:16.043Z,5.10
2019-04-23T05:07:02.461Z,4.75
2019-04-23T05:09:37.135Z,4.67
2019-04-23T05:14:35.537Z,4.80
2019-04-23T05:16:56.496Z,4.53
2019-04-23T05:19:40.785Z,4.35
2019-04-23T05:24:30.211Z,4.25
2019-04-23T05:26:57.976Z,4.12
2019-04-23T05:29:34.529Z,4.65
2019-04-23T05:31:58.146Z,4.25
2019-04-23T05:34:35.826Z,4.10
2019-04-23T05:37:15.964Z,4.72
2019-04-23T05:44:44.739Z,4.30
2019-04-23T05:47:19.118Z,4.42
2019-04-23T05:49:47.589Z,4.47
2019-04-23T05:52:17.653Z,4.10
2019-04-23T05:57:20.016Z,4.35
2019-04-23T06:02:26.228Z,4.42
2019-04-23T06:04:57.167Z,4.33
2019-04-23T06:07:45.672Z,4.50
2019-04-23T06:10:02.292Z,4.93
2019-04-23T06:12:31.898Z,4.42
2019-04-23T06:17:27.415Z,4.40
2019-04-23T06:22:51.189Z,4.37
2019-04-23T06:25:12.058Z,4.80
2019-04-23T06:27:42.551Z,4.50
2019-04-23T06:30:08.696Z,4.43
2019-04-23T06:32:42.952Z,4.50
2019-04-23T06:35:11.702Z,4.55
2019-04-23T06:38:14.677Z,4.65
2019-04-23T06:42:58.242Z,4.60
2019-04-23T06:45:30.611Z,4.37
2019-04-23T06:48:01.852Z,4.30
2019-04-23T06:50:34.699Z,3.77
2019-04-23T06:53:00.629Z,4.13
2019-04-23T06:55:36.936Z,3.98
2019-04-23T06:58:17.063Z,4.20
2019-04-23T07:00:41.860Z,3.52
2019-04-23T07:03:30.786Z,4.08
2019-04-23T07:06:23.716Z,3.77
2019-04-23T07:09:04.423Z,3.85
2019-04-23T07:21:18.407Z,3.80
2019-04-23T07:24:00.861Z,3.60
2019-04-23T07:28:56.407Z,3.50
2019-04-23T07:33:59.548Z,3.47
2019-04-23T07:36:29.545Z,3.80
2019-04-23T07:39:20.580Z,3.80
2019-04-23T07:41:56.001Z,3.75
2019-04-23T07:44:29.761Z,3.30
2019-04-23T07:49:50.739Z,3.77
2019-04-23T07:54:52.614Z,3.33
2019-04-23T07:57:19.927Z,3.50
2019-04-23T07:59:56.384Z,3.37
2019-04-23T08:02:25.686Z,3.58
2019-04-23T08:05:04.172Z,3.30
2019-04-23T08:07:26.866Z,3.43
2019-04-23T08:10:00.502Z,3.20
2019-04-23T08:12:31.483Z,3.20
2019-04-23T08:15:09.491Z,3.60
2019-04-23T08:17:27.817Z,3.45
2019-04-23T08:25:12.582Z,3.08
2019-04-23T08:27:43.964Z,3.50
2019-04-23T08:30:32.656Z,3.52
2019-04-23T08:32:52.360Z,4.03
2019-04-23T08:35:32.563Z,3.35
2019-04-23T08:38:12.341Z,3.40
2019-04-23T08:40:54.379Z,3.80
2019-04-23T08:43:02.062Z,3.47
2019-04-23T08:50:57.986Z,3.90
2019-04-23T08:53:35.863Z,3.92
2019-04-23T08:55:49.890Z,4.03
2019-04-23T08:58:29.227Z,4.08
2019-04-23T09:03:33.314Z,3.83
2019-04-23T09:06:12.392Z,3.75
2019-04-23T09:08:32.877Z,3.75
2019-04-23T09:15:59.878Z,3.85
2019-04-23T09:18:38.339Z,3.95
2019-04-23T09:21:12.218Z,4.70
2019-04-23T09:26:07.894Z,4.05
2019-04-23T09:28:51.667Z,4.20
2019-04-23T09:34:18.708Z,4.10
2019-04-23T09:36:49.607Z,4.03
2019-04-23T09:39:32.721Z,4.30
2019-04-23T09:42:11.314Z,3.95
2019-04-23T09:47:45.875Z,4.40
2019-04-23T09:52:48.400Z,4.30
2019-04-23T09:55:24.016Z,4.17
2019-04-23T09:57:52.311Z,4.15
2019-04-23T10:00:25.499Z,4.00
2019-04-23T10:02:33.942Z,3.97
2019-04-23T10:05:07.313Z,4.30
2019-04-23T10:07:38.205Z,4.25
2019-04-23T10:09:57.343Z,3.83
2019-04-23T10:12:28.138Z,4.17
2019-04-23T10:15:08.071Z,3.95
2019-04-23T10:17:31.899Z,4.17
2019-04-23T10:20:02.776Z,4.28
2019-04-23T10:22:35.820Z,3.77
2019-04-23T10:25:06.759Z,3.87
2019-04-23T10:27:36.865Z,3.98
2019-04-23T10:30:08.146Z,3.90
2019-04-23T10:32:39.825Z,4.30
2019-04-23T10:35:22.105Z,4.33
2019-04-23T10:37:48.927Z,4.80
2019-04-23T10:40:19.665Z,4.33
2019-04-23T10:42:48.388Z,4.50
2019-04-23T10:45:30.220Z,4.35
2019-04-23T10:51:17.823Z,4.50
2019-04-23T10:53:37.623Z,4.80
2019-04-23T10:56:07.467Z,4.37
2019-04-23T10:58:35.364Z,4.45
2019-04-23T11:01:04.598Z,4.22
2019-04-23T11:06:21.302Z,4.58
2019-04-23T11:08:38.719Z,4.58
2019-04-23T11:11:14.557Z,4.30
2019-04-23T11:13:45.222Z,4.40
2019-04-23T11:21:28.354Z,4.72
2019-04-23T11:23:51.776Z,4.37
2019-04-23T11:26:32.737Z,4.70
2019-04-23T11:28:55.535Z,4.72
2019-04-23T11:37:16.456Z,4.35
2019-04-23T11:42:36.962Z,4.62
2019-04-23T11:57:07.924Z,4.70
2019-04-23T11:59:16.289Z,4.92
2019-04-23T12:01:53.231Z,4.72
2019-04-23T12:04:31.059Z,4.62
2019-04-23T12:09:55.094Z,4.72
2019-04-23T12:12:28.503Z,4.87
2019-04-23T12:15:15.494Z,5.10
2019-04-23T12:17:46.665Z,5.80
2019-04-23T12:20:22.971Z,4.90
2019-04-23T12:22:57.559Z,4.80
2019-04-23T12:28:01.746Z,5.00
2019-04-23T12:30:39.589Z,8.00
2019-04-23T12:38:14.237Z,5.25
2019-04-23T12:40:45.984Z,4.97
2019-04-23T12:43:16.703Z,4.90
2019-04-23T12:45:42.467Z,4.70
2019-04-23T12:50:58.704Z,5.08
2019-04-23T12:53:30.394Z,5.03
2019-04-23T12:55:51.250Z,5.12
2019-04-23T13:03:30.217Z,5.85
2019-04-23T13:05:56.344Z,5.12
2019-04-23T13:11:23.622Z,5.50
2019-04-23T13:13:38.409Z,4.90
2019-04-23T13:16:12.334Z,7.42
2019-04-23T13:21:30.043Z,6.12
2019-04-23T13:23:39.170Z,5.57
2019-04-23T13:26:13.408Z,5.83
2019-04-23T13:28:54.513Z,6.20
2019-04-23T13:31:36.037Z,5.72
2019-04-23T13:33:49.966Z,5.90
2019-04-23T13:36:34.886Z,5.27
2019-04-23T13:38:55.055Z,5.50
2019-04-23T13:41:28.836Z,5.40
2019-04-23T13:43:53.117Z,5.33
2019-04-23T13:46:33.138Z,5.20
2019-04-23T13:49:02.820Z,5.37
2019-04-23T13:51:40.435Z,5.58
2019-04-23T13:54:13.913Z,5.20
2019-04-23T13:59:15.434Z,5.90
2019-04-23T14:01:41.178Z,5.53
2019-04-23T14:04:32.439Z,5.47
2019-04-23T14:06:57.877Z,6.00
2019-04-23T14:09:41.855Z,5.70
2019-04-23T14:11:58.023Z,5.90
2019-04-23T14:14:49.115Z,6.00
2019-04-23T14:19:45.537Z,6.27
2019-04-23T14:22:31.142Z,5.80
2019-04-23T14:27:19.815Z,6.17
2019-04-23T14:29:55.653Z,5.90
2019-04-23T14:32:22.527Z,6.10
2019-04-23T14:35:04.609Z,5.95
2019-04-23T14:37:23.426Z,5.97
2019-04-23T14:40:08.190Z,6.53
2019-04-23T14:42:47.583Z,6.30
2019-04-23T14:45:13.871Z,6.50
2019-04-23T14:47:39.037Z,7.92
2019-04-23T14:50:27.887Z,7.20
2019-04-23T14:52:50.302Z,7.90
2019-04-23T14:55:40.348Z,7.67
2019-04-23T14:57:55.871Z,9.03
2019-04-23T15:00:18.585Z,8.30
2019-04-23T15:02:53.628Z,8.60
2019-04-23T15:05:17.383Z,8.83
2019-04-23T15:07:50.773Z,8.85
2019-04-23T15:13:02.735Z,9.30
2019-04-23T15:18:01.814Z,9.67
2019-04-23T15:20:32.963Z,10.15
2019-04-23T15:23:30.131Z,9.73
2019-04-23T15:30:35.404Z,8.03
2019-04-23T15:40:45.765Z,9.00
2019-04-23T15:43:14.749Z,9.37
2019-04-23T15:45:52.360Z,9.93
2019-04-23T15:48:27.665Z,9.78
2019-04-23T15:50:53.764Z,10.10
2019-04-23T15:53:11.378Z,9.70
2019-04-23T15:56:05.735Z,9.20
2019-04-23T16:01:24.879Z,8.80
2019-04-23T16:03:20.598Z,9.15
2019-04-23T16:05:53.008Z,8.68
2019-04-23T16:11:41.299Z,8.68
2019-04-23T16:16:39.005Z,9.93
2019-04-23T16:19:19.028Z,9.78
2019-04-23T16:34:29.187Z,9.28
2019-04-23T16:37:02.181Z,9.08
2019-04-23T16:39:30.780Z,8.83
2019-04-23T16:42:08.824Z,8.27
2019-04-23T16:44:48.603Z,7.40
2019-04-23T16:49:42.183Z,6.55
2019-04-23T16:52:17.711Z,7.45
2019-04-23T16:55:03.746Z,6.50
2019-04-23T16:57:29.018Z,6.15
2019-04-23T17:00:02.519Z,6.30
2019-04-23T17:02:21.426Z,6.28
2019-04-23T17:04:54.625Z,5.60
2019-04-23T17:07:11.841Z,5.83
2019-04-23T17:10:06.923Z,6.12
2019-04-23T17:12:21.114Z,6.45
2019-04-23T17:15:05.362Z,6.10
2019-04-23T17:17:28.533Z,6.28
2019-04-23T17:20:08.880Z,6.83
2019-04-23T17:22:33.744Z,7.33
2019-04-23T17:27:41.529Z,7.35
2019-04-23T17:30:11.962Z,8.33
2019-04-23T17:33:07.867Z,7.55
2019-04-23T17:38:16.666Z,7.72
2019-04-23T17:41:01.638Z,8.07
2019-04-23T17:43:42.422Z,8.48
2019-04-23T17:46:05.425Z,8.68
2019-04-23T17:48:41.361Z,8.28
2019-04-23T17:51:16.565Z,8.73
2019-04-23T17:53:52.520Z,8.53
2019-04-23T17:56:27.310Z,8.53
2019-04-23T17:58:53.861Z,8.53
2019-04-23T18:01:25.657Z,8.83
2019-04-23T18:04:05.825Z,8.88
2019-04-23T18:06:45.818Z,8.90
2019-04-23T18:09:07.616Z,8.90
2019-04-23T18:11:47.989Z,9.23
2019-04-23T18:14:02.336Z,8.83
2019-04-23T18:16:40.801Z,8.63
2019-04-23T18:19:07.783Z,8.80
2019-04-23T18:21:44.602Z,8.80
2019-04-23T18:24:22.676Z,9.53
2019-04-23T18:26:55.392Z,8.97
2019-04-23T18:29:31.570Z,8.83
2019-04-23T18:32:16.306Z,8.68
2019-04-23T18:35:04.019Z,8.98
2019-04-23T18:37:23.669Z,9.68
2019-04-23T18:39:49.965Z,9.93
2019-04-23T18:42:25.875Z,10.10
2019-04-23T18:44:52.134Z,10.53
2019-04-23T18:49:55.876Z,11.22
2019-04-23T18:52:33.649Z,10.55
2019-04-23T18:54:53.890Z,11.15
2019-04-23T18:57:33.910Z,11.08
2019-04-23T19:00:05.742Z,10.90
2019-04-23T19:02:42.685Z,10.75
2019-04-23T19:05:26.461Z,10.85
2019-04-23T19:08:07.588Z,11.15
2019-04-23T19:10:50.973Z,11.45
2019-04-23T19:13:28.914Z,10.68
2019-04-23T19:16:13.104Z,11.45
2019-04-23T19:18:30.481Z,10.63
2019-04-23T19:21:13.843Z,11.13
2019-04-23T19:23:45.012Z,11.73
2019-04-23T19:25:54.661Z,11.00
2019-04-23T19:31:01.873Z,9.30
2019-04-23T19:36:14.232Z,8.95
2019-04-23T19:38:43.807Z,8.78
2019-04-23T19:41:12.779Z,9.05
2019-04-23T19:43:53.070Z,9.00
2019-04-23T19:46:25.984Z,8.90
2019-04-23T19:56:47.078Z,8.30
2019-04-23T20:06:53.989Z,8.10
2019-04-23T20:09:21.823Z,9.40
2019-04-23T20:14:02.317Z,8.28
2019-04-23T20:19:06.819Z,8.20
2019-04-23T20:21:47.394Z,7.83
2019-04-23T20:24:20.830Z,8.35
2019-04-23T20:29:32.220Z,7.53
2019-04-23T20:31:58.247Z,8.20
2019-04-23T20:34:31.090Z,7.83
2019-04-23T20:44:39.418Z,7.35
2019-04-23T20:47:06.238Z,7.67
2019-04-23T20:52:07.265Z,8.05
2019-04-23T20:54:49.533Z,7.80
2019-04-23T20:57:20.228Z,7.63
2019-04-23T20:59:51.613Z,7.50
2019-04-23T21:05:10.075Z,7.22
2019-04-23T21:07:49.196Z,7.30
2019-04-23T21:10:19.933Z,7.12
2019-04-23T21:12:58.233Z,7.03
2019-04-23T21:15:10.382Z,7.55
2019-04-23T21:18:02.037Z,7.12
2019-04-23T21:22:44.869Z,7.00
2019-04-23T21:25:08.174Z,7.17
2019-04-23T21:27:55.454Z,7.78
2019-04-23T21:30:48.537Z,8.25
2019-04-23T21:36:11.099Z,7.20
2019-04-23T21:38:55.719Z,7.85
2019-04-23T21:51:39.417Z,7.53
2019-04-23T21:53:56.794Z,7.33
2019-04-23T21:56:31.163Z,7.70
2019-04-23T22:06:37.186Z,9.00
2019-04-23T22:09:07.337Z,8.80
2019-04-23T22:19:20.251Z,8.50
2019-04-23T22:21:47.148Z,8.90
2019-04-23T22:29:18.837Z,9.40
2019-04-23T22:31:47.141Z,8.93
2019-04-23T22:37:03.872Z,10.75
2019-04-23T22:39:41.916Z,10.20
2019-04-23T22:41:56.087Z,11.08
2019-04-23T22:44:30.892Z,10.95
2019-04-23T22:47:24.582Z,11.05
2019-04-23T22:52:15.172Z,11.00
2019-04-23T22:54:39.780Z,10.30
2019-04-23T22:59:47.061Z,9.55
2019-04-23T23:02:30.331Z,9.70
2019-04-23T23:05:09.647Z,9.95
2019-04-23T23:07:28.578Z,10.57
2019-04-23T23:12:45.142Z,10.15
2019-04-23T23:15:08.274Z,10.65
2019-04-23T23:17:42.042Z,10.00
2019-04-23T23:20:41.784Z,10.43
2019-04-23T23:25:11.454Z,10.07
2019-04-23T23:27:50.100Z,10.55
2019-04-23T23:30:26.671Z,10.08
2019-04-23T23:32:49.185Z,10.70
2019-04-23T23:37:42.304Z,10.63
2019-04-23T23:40:21.930Z,10.82
2019-04-23T23:42:55.818Z,10.70
2019-04-23T23:45:30.484Z,11.08
2019-04-23T23:47:54.390Z,11.28
2019-04-23T23:50:25.523Z,11.30
2019-04-23T23:58:12.851Z,11.40
